createdAt,value
2022-12-27T00:01:14.085Z,6.30
2022-12-27T00:03:42.783Z,6.30
2022-12-27T00:06:13.788Z,6.10
2022-12-27T00:08:43.040Z,6.10
2022-12-27T00:11:13.686Z,6.00
2022-12-27T00:13:42.425Z,5.80
2022-12-27T00:16:14.612Z,5.70
2022-12-27T00:18:43.457Z,5.60
2022-12-27T00:21:13.699Z,5.60
2022-12-27T00:23:47.311Z,5.40
2022-12-27T00:26:18.298Z,5.30
2022-12-27T00:28:47.033Z,5.30
2022-12-27T00:31:18.814Z,5.20
2022-12-27T00:33:49.083Z,5.20
2022-12-27T00:36:20.485Z,5.30
2022-12-27T00:38:49.425Z,5.20
2022-12-27T00:41:18.506Z,5.10
2022-12-27T00:43:47.300Z,5.00
2022-12-27T00:46:18.103Z,5.00
2022-12-27T00:48:46.942Z,4.80
2022-12-27T00:51:18.180Z,4.70
2022-12-27T00:53:47.623Z,4.70
2022-12-27T00:56:18.607Z,4.60
2022-12-27T00:58:46.682Z,4.70
2022-12-27T01:01:18.957Z,4.70
2022-12-27T01:03:47.731Z,4.80
2022-12-27T01:06:18.862Z,4.80
2022-12-27T01:08:48.300Z,4.80
2022-12-27T01:11:18.365Z,4.80
2022-12-27T01:13:47.170Z,4.70
2022-12-27T01:16:19.785Z,4.50
2022-12-27T01:18:48.802Z,4.40
2022-12-27T01:21:20.745Z,4.50
2022-12-27T01:23:49.682Z,4.20
2022-12-27T01:26:20.727Z,4.30
2022-12-27T01:28:50.697Z,4.20
2022-12-27T01:31:22.947Z,4.10
2022-12-27T01:33:55.268Z,4.10
2022-12-27T01:36:25.849Z,4.00
2022-12-27T01:38:54.436Z,4.00
2022-12-27T01:41:43.464Z,4.10
2022-12-27T01:44:50.161Z,4.00
2022-12-27T01:47:30.783Z,3.90
2022-12-27T01:50:08.162Z,3.80
2022-12-27T01:52:42.017Z,3.70
2022-12-27T01:55:19.573Z,3.70
2022-12-27T01:57:49.752Z,3.70
2022-12-27T02:00:18.867Z,3.70
2022-12-27T02:02:48.862Z,3.80
2022-12-27T02:05:20.526Z,3.70
2022-12-27T02:08:02.745Z,3.60
2022-12-27T02:10:32.212Z,3.60
2022-12-27T02:13:01.851Z,3.70
2022-12-27T02:15:29.769Z,3.60
2022-12-27T02:17:59.443Z,3.60
2022-12-27T02:20:32.318Z,3.50
2022-12-27T02:24:04.417Z,3.50
2022-12-27T02:26:50.039Z,3.40
2022-12-27T02:29:39.388Z,3.50
2022-12-27T02:32:12.729Z,3.40
2022-12-27T02:34:52.975Z,3.40
2022-12-27T02:37:24.409Z,3.30
2022-12-27T02:39:54.811Z,3.30
2022-12-27T02:42:41.040Z,3.20
2022-12-27T02:45:39.883Z,3.20
2022-12-27T02:48:33.592Z,3.10
2022-12-27T02:51:53.712Z,3.10
2022-12-27T02:54:46.772Z,3.10
2022-12-27T02:57:28.918Z,3.10
2022-12-27T03:00:28.038Z,3.20
2022-12-27T03:03:28.857Z,3.10
2022-12-27T03:06:43.137Z,3.20
2022-12-27T03:10:30.108Z,3.20
2022-12-27T03:13:36.849Z,3.10
2022-12-27T03:16:19.736Z,3.00
2022-12-27T03:19:09.829Z,2.90
2022-12-27T03:22:00.655Z,2.90
2022-12-27T03:24:51.147Z,2.90
2022-12-27T03:27:28.431Z,2.90
2022-12-27T03:30:22.509Z,2.90
2022-12-27T03:33:14.173Z,2.90
2022-12-27T03:36:10.758Z,2.90
2022-12-27T03:38:47.609Z,2.90
2022-12-27T03:41:41.615Z,2.80
2022-12-27T03:44:23.965Z,2.80
2022-12-27T03:46:58.397Z,2.70
2022-12-27T03:49:33.790Z,2.70
2022-12-27T03:52:11.968Z,2.70
2022-12-27T03:54:43.108Z,2.60
2022-12-27T03:57:15.327Z,2.60
2022-12-27T03:59:43.350Z,2.50
2022-12-27T04:02:11.859Z,2.50
2022-12-27T04:04:40.091Z,2.50
2022-12-27T04:07:09.389Z,2.50
2022-12-27T04:09:54.899Z,2.40
2022-12-27T04:12:40.361Z,2.40
2022-12-27T04:15:26.466Z,2.40
2022-12-27T04:18:12.276Z,2.40
2022-12-27T04:20:58.343Z,2.30
2022-12-27T04:23:45.227Z,2.30
2022-12-27T04:26:30.750Z,2.30
2022-12-27T04:29:16.282Z,2.30
2022-12-27T04:32:01.637Z,2.20
2022-12-27T04:34:42.690Z,2.20
2022-12-27T04:37:13.577Z,2.20
2022-12-27T04:40:03.142Z,2.20
2022-12-27T04:42:48.877Z,2.30
2022-12-27T04:45:34.316Z,2.30
2022-12-27T04:48:19.925Z,2.20
2022-12-27T04:51:05.429Z,2.20
2022-12-27T04:53:51.453Z,2.30
2022-12-27T04:56:20.711Z,2.30
2022-12-27T04:59:02.596Z,2.20
2022-12-27T05:01:48.486Z,2.20
2022-12-27T05:04:17.274Z,2.20
2022-12-27T05:06:45.296Z,2.20
2022-12-27T05:09:31.380Z,2.20
2022-12-27T05:12:14.631Z,2.20
2022-12-27T05:14:42.534Z,2.10
2022-12-27T05:17:10.415Z,2.10
2022-12-27T05:19:38.462Z,2.10
2022-12-27T05:22:26.106Z,2.10
2022-12-27T05:25:11.318Z,2.20
2022-12-27T05:27:40.525Z,2.20
2022-12-27T05:30:10.050Z,2.10
2022-12-27T05:32:37.913Z,2.20
2022-12-27T05:35:06.937Z,2.10
2022-12-27T05:37:34.814Z,2.20
2022-12-27T05:40:02.730Z,2.20
2022-12-27T05:42:30.591Z,2.20
2022-12-27T05:44:59.784Z,2.20
2022-12-27T05:47:27.674Z,2.30
2022-12-27T05:49:55.563Z,2.30
2022-12-27T05:52:23.459Z,2.40
2022-12-27T05:54:51.406Z,2.40
2022-12-27T05:57:19.261Z,2.50
2022-12-27T05:59:47.155Z,2.50
2022-12-27T06:02:16.502Z,2.50
2022-12-27T06:04:45.317Z,2.40
2022-12-27T06:07:14.305Z,2.40
2022-12-27T06:09:42.246Z,2.40
2022-12-27T06:12:10.188Z,2.40
2022-12-27T06:14:38.052Z,2.40
2022-12-27T06:17:06.007Z,2.40
2022-12-27T06:19:35.258Z,2.50
2022-12-27T06:22:03.148Z,2.60
2022-12-27T06:24:31.023Z,2.50
2022-12-27T06:26:58.900Z,2.50
2022-12-27T06:29:26.783Z,2.50
2022-12-27T06:31:54.704Z,2.50
2022-12-27T06:34:22.625Z,2.50
2022-12-27T06:36:51.922Z,2.50
2022-12-27T06:39:20.157Z,2.50
2022-12-27T06:41:48.676Z,2.50
2022-12-27T06:44:16.572Z,2.50
2022-12-27T06:46:44.477Z,2.60
2022-12-27T06:49:12.580Z,2.60
2022-12-27T06:51:40.495Z,2.60
2022-12-27T06:54:09.952Z,2.60
2022-12-27T06:56:37.914Z,2.60
2022-12-27T06:59:06.020Z,2.60
2022-12-27T07:01:34.219Z,2.60
2022-12-27T07:04:02.299Z,2.70
2022-12-27T07:06:32.416Z,2.60
2022-12-27T07:09:02.178Z,2.60
2022-12-27T07:11:33.803Z,2.70
2022-12-27T07:14:01.739Z,2.70
2022-12-27T07:16:31.611Z,2.70
2022-12-27T07:19:00.773Z,2.70
2022-12-27T07:21:30.473Z,2.70
2022-12-27T07:23:58.624Z,2.80
2022-12-27T07:26:31.319Z,2.80
2022-12-27T07:29:01.419Z,2.80
2022-12-27T07:31:33.244Z,2.70
2022-12-27T07:34:03.807Z,2.80
2022-12-27T07:36:35.982Z,2.80
2022-12-27T07:39:05.310Z,2.80
2022-12-27T07:41:34.583Z,2.80
2022-12-27T07:44:03.471Z,2.80
2022-12-27T07:46:31.372Z,2.90
2022-12-27T07:49:00.637Z,2.90
2022-12-27T07:51:29.741Z,3.00
2022-12-27T07:53:57.805Z,2.90
2022-12-27T07:56:28.409Z,2.90
2022-12-27T07:59:00.871Z,2.90
2022-12-27T08:01:51.585Z,3.00
2022-12-27T08:04:19.570Z,3.10
2022-12-27T08:06:48.195Z,3.10
2022-12-27T08:09:21.463Z,3.20
2022-12-27T08:11:49.358Z,3.20
2022-12-27T08:14:18.580Z,3.20
2022-12-27T08:16:46.826Z,3.20
2022-12-27T08:19:14.849Z,3.30
2022-12-27T08:21:42.743Z,3.30
2022-12-27T08:24:10.626Z,3.30
2022-12-27T08:26:38.517Z,3.30
2022-12-27T08:29:06.368Z,3.30
2022-12-27T08:31:35.828Z,3.30
2022-12-27T08:34:04.299Z,3.30
2022-12-27T08:39:20.945Z,3.30
2022-12-27T08:41:48.841Z,3.30
2022-12-27T08:44:16.751Z,3.40
2022-12-27T08:46:46.741Z,3.40
2022-12-27T08:49:14.649Z,3.40
2022-12-27T08:51:42.598Z,3.40
2022-12-27T08:54:10.720Z,3.40
2022-12-27T08:56:38.972Z,3.50
2022-12-27T08:59:06.863Z,3.50
2022-12-27T09:01:34.870Z,3.50
2022-12-27T09:04:04.282Z,3.50
2022-12-27T09:06:32.512Z,3.60
2022-12-27T09:09:01.332Z,3.60
2022-12-27T09:11:33.282Z,3.70
2022-12-27T09:14:03.941Z,3.70
2022-12-27T09:16:34.017Z,3.70
2022-12-27T09:19:05.129Z,3.80
2022-12-27T09:21:34.920Z,3.80
2022-12-27T09:24:03.126Z,3.80
2022-12-27T09:26:31.673Z,3.90
2022-12-27T09:29:00.832Z,3.90
2022-12-27T09:31:29.323Z,3.90
2022-12-27T09:33:58.080Z,4.00
2022-12-27T09:36:29.868Z,3.90
2022-12-27T09:38:59.660Z,3.90
2022-12-27T09:44:50.802Z,4.00
2022-12-27T09:47:26.215Z,4.00
2022-12-27T09:49:59.493Z,4.10
2022-12-27T09:52:37.300Z,4.00
2022-12-27T09:55:13.303Z,4.00
2022-12-27T09:57:45.034Z,4.10
2022-12-27T10:00:19.629Z,4.10
2022-12-27T10:03:06.508Z,4.20
2022-12-27T10:05:39.414Z,4.30
2022-12-27T10:08:36.481Z,4.40
2022-12-27T10:11:37.257Z,4.40
2022-12-27T10:14:22.109Z,4.50
2022-12-27T10:16:59.348Z,4.50
2022-12-27T10:19:42.124Z,4.60
2022-12-27T10:22:23.674Z,4.60
2022-12-27T10:24:58.101Z,4.60
2022-12-27T10:27:29.311Z,4.60
2022-12-27T10:30:00.402Z,4.70
2022-12-27T10:32:28.747Z,4.80
2022-12-27T10:35:01.369Z,4.80
2022-12-27T10:37:29.637Z,4.90
2022-12-27T10:40:08.443Z,4.90
2022-12-27T10:42:41.769Z,4.80
2022-12-27T10:45:33.505Z,4.80
2022-12-27T10:48:21.646Z,4.80
2022-12-27T10:50:56.284Z,4.80
2022-12-27T10:54:01.594Z,4.90
2022-12-27T10:56:33.556Z,5.00
2022-12-27T10:59:16.475Z,5.00
2022-12-27T11:01:46.620Z,5.10
2022-12-27T11:04:21.846Z,5.00
2022-12-27T11:06:52.546Z,5.00
2022-12-27T11:09:34.155Z,5.10
2022-12-27T11:12:18.872Z,5.00
2022-12-27T11:14:59.455Z,5.10
2022-12-27T11:17:34.524Z,5.00
2022-12-27T11:20:20.692Z,5.00
2022-12-27T11:22:53.302Z,5.00
2022-12-27T11:25:22.138Z,5.00
2022-12-27T11:27:57.704Z,5.00
2022-12-27T11:30:30.755Z,5.00
2022-12-27T11:33:04.727Z,5.00
2022-12-27T11:35:37.427Z,4.90
2022-12-27T11:38:06.321Z,4.90
2022-12-27T11:40:35.913Z,4.90
2022-12-27T11:43:10.251Z,4.90
2022-12-27T11:45:45.169Z,5.00
2022-12-27T11:48:26.087Z,5.00
2022-12-27T11:51:30.953Z,5.00
2022-12-27T11:54:37.208Z,5.00
2022-12-27T11:57:25.472Z,5.00
2022-12-27T12:00:13.060Z,5.00
2022-12-27T12:03:19.192Z,5.10
2022-12-27T12:06:00.039Z,5.30
2022-12-27T12:08:58.261Z,5.50
2022-12-27T12:11:49.955Z,7.60
2022-12-27T12:14:51.309Z,8.40
2022-12-27T12:17:59.528Z,9.20
2022-12-27T12:20:54.136Z,10.20
2022-12-27T12:23:48.761Z,9.30
2022-12-27T12:26:21.513Z,9.10
2022-12-27T12:29:40.472Z,8.40
2022-12-27T12:32:34.058Z,9.40
2022-12-27T12:35:26.085Z,8.70
2022-12-27T12:38:20.941Z,8.90
2022-12-27T12:41:22.589Z,8.20
2022-12-27T12:44:43.995Z,9.80
2022-12-27T12:47:40.625Z,8.70
2022-12-27T12:50:34.487Z,7.70
2022-12-27T12:53:21.954Z,7.00
2022-12-27T12:56:08.084Z,7.60
2022-12-27T12:58:53.563Z,7.20
2022-12-27T13:01:50.560Z,8.20
2022-12-27T13:04:42.882Z,8.60
2022-12-27T13:07:50.637Z,9.10
2022-12-27T13:10:58.827Z,8.80
2022-12-27T13:13:40.058Z,8.00
2022-12-27T13:16:25.171Z,6.90
2022-12-27T13:19:12.921Z,6.60
2022-12-27T13:21:59.148Z,6.00
2022-12-27T13:25:06.068Z,5.90
2022-12-27T13:27:42.899Z,5.70
2022-12-27T13:30:21.550Z,5.60
2022-12-27T13:33:24.839Z,5.50
2022-12-27T13:36:17.578Z,5.60
2022-12-27T13:39:09.556Z,5.60
2022-12-27T13:41:59.728Z,5.70
2022-12-27T13:44:49.302Z,5.80
2022-12-27T13:48:12.753Z,5.80
2022-12-27T13:51:13.349Z,6.10
2022-12-27T13:54:09.357Z,6.30
2022-12-27T13:56:54.421Z,6.50
2022-12-27T14:00:09.055Z,6.70
2022-12-27T14:03:43.754Z,6.60
2022-12-27T14:06:48.786Z,6.60
2022-12-27T14:09:47.892Z,6.50
2022-12-27T14:13:00.481Z,6.20
2022-12-27T14:15:55.222Z,6.40
2022-12-27T14:18:47.255Z,6.60
2022-12-27T14:21:55.024Z,6.80
2022-12-27T14:25:02.117Z,6.80
2022-12-27T14:28:21.630Z,6.70
2022-12-27T14:31:41.355Z,6.60
2022-12-27T14:35:00.558Z,6.50
2022-12-27T14:38:20.450Z,6.20
2022-12-27T14:41:28.962Z,5.90
2022-12-27T14:44:45.455Z,5.70
2022-12-27T14:48:04.099Z,5.50
2022-12-27T14:51:58.278Z,5.40
2022-12-27T14:54:41.324Z,5.30
2022-12-27T14:57:30.100Z,5.30
2022-12-27T15:00:15.519Z,5.30
2022-12-27T15:03:18.699Z,5.20
2022-12-27T15:06:04.010Z,5.10
2022-12-27T15:08:51.309Z,5.20
2022-12-27T15:11:51.350Z,5.10
2022-12-27T15:14:42.001Z,5.10
2022-12-27T15:17:31.287Z,5.00
2022-12-27T15:20:36.739Z,5.00
2022-12-27T15:23:21.204Z,4.90
2022-12-27T15:26:16.153Z,4.90
2022-12-27T15:29:23.220Z,4.90
2022-12-27T15:32:15.308Z,4.90
2022-12-27T15:35:04.348Z,4.80
2022-12-27T15:38:03.794Z,4.70
2022-12-27T15:41:21.448Z,4.70
2022-12-27T15:44:24.427Z,4.70
2022-12-27T15:47:31.663Z,4.60
2022-12-27T15:50:55.074Z,4.60
2022-12-27T15:53:47.751Z,4.70
2022-12-27T15:56:37.607Z,4.60
2022-12-27T15:59:42.177Z,4.50
2022-12-27T16:02:34.176Z,4.50
2022-12-27T16:05:34.172Z,4.40
2022-12-27T16:08:33.739Z,4.40
2022-12-27T16:11:05.056Z,4.30
2022-12-27T16:13:49.513Z,4.30
2022-12-27T16:17:05.778Z,4.30
2022-12-27T16:20:04.172Z,4.30
2022-12-27T16:22:39.173Z,4.30
2022-12-27T16:25:31.127Z,4.40
2022-12-27T16:28:05.238Z,4.30
2022-12-27T16:30:44.159Z,4.40
2022-12-27T16:33:37.493Z,4.40
2022-12-27T16:36:20.543Z,4.40
2022-12-27T16:39:03.716Z,4.40
2022-12-27T16:42:00.903Z,4.30
2022-12-27T16:44:52.697Z,4.30
2022-12-27T16:48:08.801Z,4.20
2022-12-27T16:51:04.509Z,4.20
2022-12-27T16:53:56.747Z,4.20
2022-12-27T16:56:27.465Z,4.20
2022-12-27T16:58:58.189Z,4.20
2022-12-27T17:01:47.122Z,4.30
2022-12-27T17:04:56.522Z,4.20
2022-12-27T17:07:50.750Z,4.20
2022-12-27T17:10:54.983Z,4.30
2022-12-27T17:13:34.629Z,4.30
2022-12-27T17:16:09.900Z,4.30
2022-12-27T17:18:46.216Z,4.20
2022-12-27T17:21:29.480Z,4.20
2022-12-27T17:24:02.530Z,4.20
2022-12-27T17:26:58.029Z,4.30
2022-12-27T17:29:52.680Z,4.30
2022-12-27T17:32:39.345Z,4.20
2022-12-27T17:35:24.442Z,4.20
2022-12-27T17:38:15.225Z,4.10
2022-12-27T17:40:58.629Z,4.20
2022-12-27T17:43:59.543Z,4.20
2022-12-27T17:46:44.357Z,4.20
2022-12-27T17:49:21.242Z,4.10
2022-12-27T17:52:03.327Z,4.10
2022-12-27T17:54:49.803Z,4.20
2022-12-27T17:57:38.408Z,4.20
2022-12-27T18:00:21.785Z,4.20
2022-12-27T18:02:51.794Z,4.20
2022-12-27T18:05:29.703Z,4.20
2022-12-27T18:08:04.216Z,4.20
2022-12-27T18:10:36.485Z,4.10
2022-12-27T18:13:07.982Z,4.10
2022-12-27T18:15:43.928Z,4.20
2022-12-27T18:18:21.754Z,4.20
2022-12-27T18:20:57.819Z,4.10
2022-12-27T18:23:26.570Z,4.10
2022-12-27T18:26:12.389Z,4.10
2022-12-27T18:28:42.483Z,4.20
2022-12-27T18:31:19.773Z,4.20
2022-12-27T18:33:52.399Z,4.20
2022-12-27T18:36:31.381Z,4.20
2022-12-27T18:39:03.333Z,4.20
2022-12-27T18:41:39.338Z,4.20
2022-12-27T18:44:20.140Z,4.20
2022-12-27T18:46:57.296Z,4.20
2022-12-27T18:49:31.614Z,4.30
2022-12-27T18:52:01.474Z,4.30
2022-12-27T18:54:36.571Z,4.30
2022-12-27T18:57:25.515Z,4.30
2022-12-27T19:00:03.064Z,4.20
2022-12-27T19:02:36.131Z,4.20
2022-12-27T19:05:25.536Z,4.20
2022-12-27T19:08:00.819Z,4.10
2022-12-27T19:10:33.444Z,4.10
2022-12-27T19:13:02.701Z,4.10
2022-12-27T19:15:42.800Z,4.00
2022-12-27T19:18:24.725Z,4.00
2022-12-27T19:20:57.999Z,4.00
2022-12-27T19:23:33.025Z,4.00
2022-12-27T19:26:26.197Z,4.00
2022-12-27T19:29:03.976Z,4.00
2022-12-27T19:31:32.222Z,4.00
2022-12-27T19:34:04.806Z,4.00
2022-12-27T19:36:38.761Z,4.00
2022-12-27T19:39:19.382Z,4.10
2022-12-27T19:41:47.888Z,4.00
2022-12-27T19:44:16.300Z,4.00
2022-12-27T19:46:44.645Z,4.00
2022-12-27T19:49:40.824Z,3.90
2022-12-27T19:52:01.287Z,3.90
2022-12-27T19:54:31.803Z,4.00
2022-12-27T19:57:00.969Z,4.00
2022-12-27T19:59:28.905Z,4.00
2022-12-27T20:01:57.048Z,4.00
2022-12-27T20:04:25.149Z,4.10
2022-12-27T20:06:54.456Z,4.00
2022-12-27T20:09:22.464Z,4.00
2022-12-27T20:11:51.722Z,4.10
2022-12-27T20:14:19.801Z,4.10
2022-12-27T20:16:48.277Z,4.10
2022-12-27T20:19:18.220Z,4.20
2022-12-27T20:21:46.923Z,4.20
2022-12-27T20:24:15.404Z,4.20
2022-12-27T20:26:44.333Z,4.30
2022-12-27T20:29:15.232Z,4.30
2022-12-27T20:31:46.041Z,4.30
2022-12-27T20:34:14.456Z,4.30
2022-12-27T20:36:42.708Z,4.40
2022-12-27T20:39:10.640Z,4.40
2022-12-27T20:41:39.827Z,4.40
2022-12-27T20:44:07.985Z,4.40
2022-12-27T20:46:37.465Z,4.40
2022-12-27T20:49:06.973Z,4.30
2022-12-27T20:51:35.207Z,4.40
2022-12-27T20:54:04.383Z,4.40
2022-12-27T20:56:32.409Z,4.40
2022-12-27T20:59:01.482Z,4.30
2022-12-27T21:01:29.558Z,4.20
2022-12-27T21:03:59.009Z,4.20
2022-12-27T21:06:30.047Z,4.20
2022-12-27T21:08:59.413Z,4.20
2022-12-27T21:11:30.917Z,4.20
2022-12-27T21:13:58.868Z,4.20
2022-12-27T21:16:30.120Z,4.30
2022-12-27T21:19:02.780Z,4.30
2022-12-27T21:21:30.943Z,4.30
2022-12-27T21:24:00.172Z,4.30
2022-12-27T21:26:30.992Z,4.30
2022-12-27T21:29:01.344Z,4.30
2022-12-27T21:31:29.956Z,4.30
2022-12-27T21:34:00.157Z,4.20
2022-12-27T21:36:31.232Z,4.20
2022-12-27T21:38:59.678Z,4.10
2022-12-27T21:41:31.228Z,4.10
2022-12-27T21:43:59.747Z,4.10
2022-12-27T21:46:30.655Z,4.10
2022-12-27T21:49:02.583Z,4.10
2022-12-27T21:51:32.933Z,4.10
2022-12-27T21:54:01.239Z,4.10
2022-12-27T21:56:30.052Z,4.20
2022-12-27T21:59:00.647Z,4.20
2022-12-27T22:01:49.668Z,4.30
2022-12-27T22:04:21.755Z,4.30
2022-12-27T22:06:50.254Z,4.30
2022-12-27T22:09:19.161Z,4.30
2022-12-27T22:11:47.534Z,4.40
2022-12-27T22:14:15.466Z,4.40
2022-12-27T22:16:43.460Z,4.40
2022-12-27T22:19:14.072Z,4.40
2022-12-27T22:21:43.652Z,4.40
2022-12-27T22:24:17.190Z,4.40
2022-12-27T22:26:45.113Z,4.40
2022-12-27T22:29:13.031Z,4.40
2022-12-27T22:31:42.593Z,4.40
2022-12-27T22:34:10.532Z,4.40
2022-12-27T22:36:38.414Z,4.40
2022-12-27T22:39:07.896Z,4.40
2022-12-27T22:41:37.912Z,4.40
2022-12-27T22:44:08.759Z,4.40
2022-12-27T22:49:25.191Z,4.40
2022-12-27T22:51:54.018Z,4.40
2022-12-27T22:55:04.258Z,4.30
2022-12-27T22:57:11.424Z,4.30
2022-12-27T22:59:39.324Z,4.30
2022-12-27T23:02:07.303Z,4.30
2022-12-27T23:04:35.319Z,4.30
2022-12-27T23:07:03.249Z,4.30
2022-12-27T23:09:37.785Z,4.30
2022-12-27T23:12:08.887Z,4.30
2022-12-27T23:14:36.836Z,4.20
2022-12-27T23:17:04.800Z,4.20
2022-12-27T23:19:32.660Z,4.20
2022-12-27T23:22:00.531Z,4.10
2022-12-27T23:24:28.416Z,4.10
2022-12-27T23:26:57.733Z,4.10
2022-12-27T23:29:26.883Z,4.10
2022-12-27T23:31:56.083Z,4.10
2022-12-27T23:34:28.192Z,4.10
2022-12-27T23:36:57.259Z,4.10
2022-12-27T23:39:25.393Z,4.00
2022-12-27T23:41:53.302Z,4.00
2022-12-27T23:44:32.985Z,4.00
2022-12-27T23:47:01.703Z,4.00
2022-12-27T23:49:29.840Z,4.00
2022-12-27T23:51:57.746Z,3.90
2022-12-27T23:54:25.672Z,3.90
2022-12-27T23:56:53.614Z,3.90
2022-12-27T23:59:23.214Z,3.80
